Time;durP1;ratioP1;P1;durP2;ratioP2;P2;SDS_P1;SDS_P2;PMS_P1;PMS_P2;Temp;Humidity;BMP_temperature;BMP_pressure;BME280_temperature;BME280_humidity;BME280_pressure;Samples;Min_cycle;Max_cycle;Signal;HPM_P1;HPM_P2
2021/11/16 00:01:09;;;;;;;58.00;20.95;;;10.50;82.30;;;;;;5072830;28;20036;-76
2021/11/16 00:03:35;;;;;;;54.67;22.25;;;10.50;82.20;;;;;;5083889;28;20020;-76
2021/11/16 00:06:00;;;;;;;52.75;21.67;;;10.50;82.20;;;;;;5085120;28;20039;-76
2021/11/16 00:08:26;;;;;;;45.70;19.08;;;10.50;82.20;;;;;;5078252;28;20040;-77
2021/11/16 00:10:52;;;;;;;57.22;21.42;;;10.60;82.20;;;;;;5072762;28;20030;-76
2021/11/16 00:13:18;;;;;;;48.47;19.15;;;10.50;82.10;;;;;;5077224;28;20024;-77
2021/11/16 00:15:45;;;;;;;54.90;21.15;;;10.60;82.20;;;;;;5073831;28;20052;-77
2021/11/16 00:18:11;;;;;;;54.28;20.55;;;10.60;82.20;;;;;;5079633;28;20037;-77
2021/11/16 00:20:42;;;;;;;55.60;21.98;;;10.60;82.20;;;;;;5076981;28;20426;-77
2021/11/16 00:23:15;;;;;;;53.17;20.50;;;10.60;82.10;;;;;;5085860;28;20072;-77
2021/11/16 00:25:41;;;;;;;62.88;21.70;;;10.50;82.20;;;;;;5079096;28;20487;-77
2021/11/16 00:28:06;;;;;;;56.15;21.75;;;10.50;82.20;;;;;;5084519;28;20046;-77
2021/11/16 00:30:32;;;;;;;52.42;21.15;;;10.50;82.10;;;;;;5080625;28;20075;-76
2021/11/16 00:32:58;;;;;;;49.38;19.85;;;10.60;82.10;;;;;;5082317;28;20028;-77
2021/11/16 00:35:25;;;;;;;57.60;23.45;;;10.60;82.10;;;;;;5081652;28;20021;-77
2021/11/16 00:37:51;;;;;;;52.33;21.60;;;10.60;82.10;;;;;;5078148;28;20051;-77
2021/11/16 00:40:19;;;;;;;55.55;22.92;;;10.50;82.00;;;;;;5071157;28;20033;-77
2021/11/16 00:42:47;;;;;;;57.72;22.27;;;10.50;81.90;;;;;;5071017;28;20392;-77
2021/11/16 00:45:14;;;;;;;53.17;22.38;;;10.50;81.90;;;;;;5072904;28;20036;-77
2021/11/16 00:47:42;;;;;;;45.67;19.88;;;10.50;81.90;;;;;;5074172;28;20061;-77
2021/11/16 00:50:08;;;;;;;59.00;23.45;;;10.60;82.00;;;;;;5072756;28;20032;-77
2021/11/16 00:52:34;;;;;;;56.33;21.52;;;10.50;81.90;;;;;;5068385;28;20064;-78
2021/11/16 00:55:00;;;;;;;64.10;24.42;;;10.50;81.90;;;;;;5074042;28;20024;-75
2021/11/16 00:57:25;;;;;;;59.00;23.13;;;10.50;81.80;;;;;;5075238;28;20513;-79
2021/11/16 00:59:51;;;;;;;55.05;21.85;;;10.40;81.80;;;;;;5071316;28;20032;-79
2021/11/16 01:02:17;;;;;;;56.85;21.67;;;10.50;81.80;;;;;;5073736;28;20039;-78
2021/11/16 01:04:49;;;;;;;47.67;19.80;;;10.40;81.70;;;;;;5076195;28;20112;-75
2021/11/16 01:07:16;;;;;;;45.00;15.68;;;10.40;81.90;;;;;;5072945;28;20106;-76
2021/11/16 01:09:42;;;;;;;52.53;21.23;;;10.40;82.10;;;;;;5068124;28;20491;-76
2021/11/16 01:12:08;;;;;;;54.20;18.63;;;10.40;82.20;;;;;;5073738;28;20032;-76
2021/11/16 01:14:34;;;;;;;51.30;21.80;;;10.40;82.00;;;;;;5072355;28;20540;-76
2021/11/16 01:17:00;;;;;;;50.63;22.27;;;10.40;82.00;;;;;;5078599;28;20076;-76
2021/11/16 01:19:26;;;;;;;61.15;24.30;;;10.40;81.90;;;;;;5074809;28;20144;-76
2021/11/16 01:21:52;;;;;;;59.53;22.08;;;10.30;81.80;;;;;;5067353;28;20103;-76
2021/11/16 01:24:18;;;;;;;65.35;22.27;;;10.40;81.90;;;;;;5074266;28;20039;-76
2021/11/16 01:26:46;;;;;;;64.07;24.90;;;10.40;81.80;;;;;;5074794;28;20025;-76
2021/11/16 01:29:12;;;;;;;60.67;22.58;;;10.40;81.90;;;;;;5071414;28;20502;-76
2021/11/16 01:31:38;;;;;;;52.33;20.30;;;10.40;81.70;;;;;;5071286;28;20438;-76
2021/11/16 01:34:05;;;;;;;63.38;24.75;;;10.30;81.80;;;;;;5071294;28;20033;-76
2021/11/16 01:36:31;;;;;;;53.97;21.60;;;10.30;81.70;;;;;;5072607;28;20044;-77
2021/11/16 01:38:58;;;;;;;59.55;22.83;;;10.40;82.20;;;;;;5070301;28;20438;-76
2021/11/16 01:41:26;;;;;;;57.17;23.52;;;10.40;82.20;;;;;;5071398;28;20093;-76
2021/11/16 01:43:51;;;;;;;56.33;23.30;;;10.40;82.00;;;;;;5070911;28;20064;-77
2021/11/16 01:46:19;;;;;;;59.60;21.88;;;10.40;81.90;;;;;;5072301;28;20063;-77
2021/11/16 01:48:50;;;;;;;62.00;23.05;;;10.40;81.80;;;;;;5080946;28;20025;-76
2021/11/16 01:51:20;;;;;;;66.07;24.42;;;10.40;81.80;;;;;;5076732;28;20032;-76
2021/11/16 01:53:51;;;;;;;65.05;21.70;;;10.40;81.70;;;;;;5072367;28;20436;-77
2021/11/16 01:56:18;;;;;;;68.30;23.58;;;10.40;81.70;;;;;;5071064;28;20040;-77
2021/11/16 01:58:44;;;;;;;67.38;22.98;;;10.40;81.70;;;;;;5069303;28;20029;-76
2021/11/16 02:01:10;;;;;;;54.88;22.15;;;10.40;81.60;;;;;;5072167;28;20444;-77
2021/11/16 02:03:37;;;;;;;56.78;23.42;;;10.40;81.60;;;;;;5070954;28;20506;-76
2021/11/16 02:06:17;;;;;;;60.05;22.48;;;10.30;81.50;;;;;;5071560;28;20025;-76
2021/11/16 02:08:43;;;;;;;62.45;22.60;;;10.40;81.50;;;;;;5071398;28;20086;-76
2021/11/16 02:11:08;;;;;;;57.22;22.88;;;10.30;81.40;;;;;;5071108;28;20032;-76
2021/11/16 02:13:34;;;;;;;60.42;22.10;;;10.40;81.40;;;;;;5077254;28;20036;-76
2021/11/16 02:16:01;;;;;;;64.32;21.80;;;10.30;81.50;;;;;;5070936;28;20080;-76
2021/11/16 02:18:29;;;;;;;51.58;19.23;;;10.40;81.80;;;;;;5068603;28;20610;-76
2021/11/16 02:20:55;;;;;;;58.72;20.30;;;10.30;81.90;;;;;;5059779;28;20105;-77
2021/11/16 02:23:22;;;;;;;68.05;24.35;;;10.40;81.90;;;;;;5070294;28;20369;-76
2021/11/16 02:25:49;;;;;;;57.92;21.48;;;10.40;81.70;;;;;;5069176;28;20036;-76
2021/11/16 02:28:17;;;;;;;58.97;21.35;;;10.30;81.50;;;;;;5077285;28;20036;-76
2021/11/16 02:30:43;;;;;;;62.22;21.10;;;10.40;81.60;;;;;;5072986;28;20063;-76
2021/11/16 02:33:09;;;;;;;57.80;22.10;;;10.30;81.40;;;;;;5070738;28;20586;-76
2021/11/16 02:35:34;;;;;;;61.65;22.65;;;10.30;81.60;;;;;;5071757;28;20123;-76
2021/11/16 02:38:00;;;;;;;61.83;22.63;;;10.40;81.50;;;;;;5071692;28;20086;-77
2021/11/16 02:40:27;;;;;;;61.63;21.50;;;10.40;81.50;;;;;;5071851;28;20036;-77
2021/11/16 02:42:54;;;;;;;60.97;20.67;;;10.30;81.30;;;;;;5074819;28;20039;-76
2021/11/16 02:45:21;;;;;;;62.63;22.25;;;10.30;81.40;;;;;;5090317;28;20092;-76
2021/11/16 02:47:47;;;;;;;62.60;22.15;;;10.30;81.70;;;;;;5091843;28;20061;-76
2021/11/16 02:50:14;;;;;;;58.45;20.77;;;10.40;81.60;;;;;;5076686;28;20072;-76
2021/11/16 02:52:44;;;;;;;59.70;23.67;;;10.40;81.50;;;;;;5082603;28;20024;-76
2021/11/16 02:55:10;;;;;;;61.05;22.13;;;10.40;81.60;;;;;;5076792;28;20044;-77
2021/11/16 02:57:37;;;;;;;67.60;22.75;;;10.40;81.60;;;;;;5075678;28;20036;-77
2021/11/16 03:00:10;;;;;;;60.15;23.08;;;10.40;82.10;;;;;;5074144;28;20033;-77
2021/11/16 03:02:36;;;;;;;56.83;21.67;;;10.40;82.00;;;;;;5083225;28;20032;-77
2021/11/16 03:05:02;;;;;;;70.05;22.70;;;10.40;81.70;;;;;;5075178;28;20029;-77
2021/11/16 03:07:34;;;;;;;53.15;17.52;;;10.40;81.50;;;;;;5084288;28;20388;-77
2021/11/16 03:10:01;;;;;;;58.88;22.17;;;10.40;81.50;;;;;;5083678;28;20032;-77
2021/11/16 03:12:29;;;;;;;57.25;20.92;;;10.40;81.60;;;;;;5083551;28;20028;-76
2021/11/16 03:14:55;;;;;;;58.00;21.55;;;10.30;81.40;;;;;;5084476;28;20115;-76
2021/11/16 03:17:22;;;;;;;62.33;22.02;;;10.40;81.40;;;;;;5084898;28;20045;-76
2021/11/16 03:19:48;;;;;;;66.28;24.35;;;10.40;81.50;;;;;;5090264;28;20387;-76
2021/11/16 03:22:15;;;;;;;62.33;22.17;;;10.30;81.20;;;;;;5076986;28;20111;-76
2021/11/16 03:24:41;;;;;;;64.88;24.27;;;10.40;81.20;;;;;;5081240;28;20020;-76
2021/11/16 03:27:10;;;;;;;74.25;23.33;;;10.30;81.20;;;;;;5081319;28;20471;-76
2021/11/16 03:29:42;;;;;;;64.68;23.80;;;10.30;81.00;;;;;;5075228;28;20370;-76
2021/11/16 03:32:11;;;;;;;61.20;20.98;;;10.30;81.10;;;;;;5086668;28;20031;-76
2021/11/16 03:34:40;;;;;;;50.55;18.90;;;10.30;81.20;;;;;;5070302;28;20067;-76
2021/11/16 03:37:06;;;;;;;57.08;18.95;;;10.40;81.30;;;;;;5087718;28;20510;-76
2021/11/16 03:39:32;;;;;;;70.88;25.13;;;10.30;81.70;;;;;;5081313;28;20013;-77
2021/11/16 03:41:58;;;;;;;66.05;24.90;;;10.30;81.60;;;;;;5079863;28;20031;-76
2021/11/16 03:44:25;;;;;;;66.10;24.10;;;10.30;81.60;;;;;;5084078;28;20029;-76
2021/11/16 03:46:51;;;;;;;93.55;24.30;;;10.30;81.50;;;;;;5087660;28;20138;-76
2021/11/16 03:49:17;;;;;;;67.38;24.02;;;10.40;81.50;;;;;;5080267;28;20047;-76
2021/11/16 03:51:45;;;;;;;64.10;22.50;;;10.30;81.40;;;;;;5073345;28;20479;-76
2021/11/16 03:54:11;;;;;;;63.90;21.77;;;10.40;81.60;;;;;;5081644;28;20101;-76
2021/11/16 03:56:38;;;;;;;65.97;25.25;;;10.30;81.40;;;;;;5089752;28;20127;-77
2021/11/16 03:59:04;;;;;;;70.13;23.45;;;10.40;81.30;;;;;;5059877;28;20041;-76
2021/11/16 04:01:31;;;;;;;67.68;24.95;;;10.30;81.10;;;;;;5073114;28;20017;-76
2021/11/16 04:03:59;;;;;;;75.78;24.85;;;10.40;81.10;;;;;;5072121;28;20430;-76
2021/11/16 04:06:25;;;;;;;76.35;25.48;;;10.40;81.00;;;;;;5072340;28;20025;-76
2021/11/16 04:08:51;;;;;;;70.57;24.38;;;10.30;80.90;;;;;;5073241;28;20146;-76
2021/11/16 04:11:16;;;;;;;69.20;27.10;;;10.40;80.90;;;;;;5073985;28;20555;-77
2021/11/16 04:13:44;;;;;;;60.90;23.30;;;10.40;80.90;;;;;;5071895;28;20119;-76
2021/11/16 04:16:10;;;;;;;63.03;25.65;;;10.40;81.00;;;;;;5071037;28;20055;-76
2021/11/16 04:18:36;;;;;;;68.93;24.92;;;10.40;80.90;;;;;;5084050;28;20036;-76
2021/11/16 04:21:02;;;;;;;68.50;25.40;;;10.40;81.00;;;;;;5073603;28;20036;-76
2021/11/16 04:23:28;;;;;;;69.75;26.10;;;10.40;81.00;;;;;;5072728;28;20040;-76
2021/11/16 04:25:55;;;;;;;63.20;25.20;;;10.40;81.00;;;;;;5070794;28;20035;-76
2021/11/16 04:28:21;;;;;;;67.80;25.33;;;10.40;81.00;;;;;;5073075;28;20029;-76
2021/11/16 04:30:49;;;;;;;67.03;25.75;;;10.40;81.00;;;;;;5080085;28;20047;-77
2021/11/16 04:33:17;;;;;;;59.90;23.15;;;10.40;81.00;;;;;;5082777;28;20028;-76
2021/11/16 04:35:43;;;;;;;72.22;24.70;;;10.40;81.00;;;;;;5083440;28;20028;-75
2021/11/16 04:38:11;;;;;;;72.90;24.40;;;10.40;81.00;;;;;;5081707;28;20130;-76
2021/11/16 04:40:41;;;;;;;71.40;25.38;;;10.40;81.10;;;;;;5085884;28;20399;-76
2021/11/16 04:43:10;;;;;;;69.68;25.48;;;10.40;81.10;;;;;;5072926;28;20037;-76
2021/11/16 04:45:39;;;;;;;65.97;23.70;;;10.40;81.10;;;;;;5084242;28;20020;-77
2021/11/16 04:48:14;;;;;;;61.00;22.13;;;10.40;81.20;;;;;;5077566;28;20484;-77
2021/11/16 05:03:55;;;;;;;69.18;23.63;;;10.40;81.40;;;;;;5069056;28;20124;-76
2021/11/16 05:06:21;;;;;;;61.15;21.90;;;10.40;81.60;;;;;;5073098;28;20036;-76
2021/11/16 05:08:48;;;;;;;62.15;24.27;;;10.40;81.80;;;;;;5070414;28;20563;-76
2021/11/16 05:11:15;;;;;;;74.82;24.92;;;10.40;82.00;;;;;;5073452;28;20369;-76
2021/11/16 05:13:45;;;;;;;73.72;25.63;;;10.30;82.00;;;;;;5075546;28;20391;-76
2021/11/16 05:16:17;;;;;;;72.85;25.13;;;10.40;81.90;;;;;;5069787;28;20109;-76
2021/11/16 05:18:43;;;;;;;78.03;26.83;;;10.30;81.80;;;;;;5076972;28;21825;-76
2021/11/16 05:21:10;;;;;;;77.07;27.33;;;10.30;81.70;;;;;;5073500;28;20127;-76
2021/11/16 05:23:47;;;;;;;70.70;24.90;;;10.40;81.70;;;;;;5072411;28;20416;-76
2021/11/16 05:26:13;;;;;;;70.97;26.17;;;10.40;81.60;;;;;;5072623;28;20032;-76
2021/11/16 05:28:38;;;;;;;70.68;26.70;;;10.40;81.60;;;;;;5072459;28;20093;-75
2021/11/16 05:31:04;;;;;;;73.82;25.95;;;10.40;81.50;;;;;;5071646;28;20105;-76
2021/11/16 05:33:31;;;;;;;80.57;26.70;;;10.40;81.50;;;;;;5071918;28;20031;-76
2021/11/16 05:36:00;;;;;;;68.45;25.85;;;10.40;81.50;;;;;;5071887;28;20066;-76
2021/11/16 05:38:32;;;;;;;65.40;24.00;;;10.40;81.50;;;;;;5071445;28;20044;-76
2021/11/16 05:40:58;;;;;;;69.03;25.08;;;10.40;81.50;;;;;;5072826;28;20037;-76
2021/11/16 05:43:25;;;;;;;64.78;23.40;;;10.40;81.60;;;;;;5071503;28;20024;-76
2021/11/16 05:45:51;;;;;;;65.13;23.20;;;10.40;81.50;;;;;;5070849;28;20123;-76
2021/11/16 05:48:17;;;;;;;61.05;23.08;;;10.30;81.40;;;;;;5071846;28;20033;-76
2021/11/16 05:50:43;;;;;;;68.13;23.17;;;10.40;81.50;;;;;;5071964;28;20069;-76
2021/11/16 05:53:09;;;;;;;70.47;24.33;;;10.40;81.50;;;;;;5070763;28;20486;-75
2021/11/16 05:55:35;;;;;;;68.88;23.10;;;10.40;81.50;;;;;;5072108;28;20399;-75
2021/11/16 05:58:01;;;;;;;67.22;24.92;;;10.40;81.70;;;;;;5071823;28;20518;-76
2021/11/16 06:00:27;;;;;;;76.50;25.00;;;10.40;81.60;;;;;;5073627;28;20056;-76
2021/11/16 06:02:53;;;;;;;67.13;24.35;;;10.30;81.60;;;;;;5065264;28;20041;-76
2021/11/16 06:05:20;;;;;;;67.35;23.67;;;10.40;81.50;;;;;;5070154;28;20037;-76
2021/11/16 06:07:46;;;;;;;71.60;24.67;;;10.40;81.50;;;;;;5071055;28;20058;-75
2021/11/16 06:10:12;;;;;;;71.22;24.40;;;10.40;81.50;;;;;;5070374;28;20029;-75
2021/11/16 06:12:37;;;;;;;61.30;22.08;;;10.40;81.50;;;;;;5072992;28;20040;-75
2021/11/16 06:15:04;;;;;;;74.55;25.70;;;10.40;81.50;;;;;;5077441;28;20028;-68
2021/11/16 06:17:30;;;;;;;68.60;22.95;;;10.30;81.50;;;;;;5079470;28;20068;-77
2021/11/16 06:19:58;;;;;;;65.57;22.45;;;10.40;81.60;;;;;;5083945;28;20063;-73
2021/11/16 06:22:24;;;;;;;67.75;22.25;;;10.40;81.70;;;;;;5079316;28;20068;-75
2021/11/16 06:24:49;;;;;;;65.50;22.58;;;10.30;81.70;;;;;;5085454;28;20063;-73
2021/11/16 06:27:15;;;;;;;76.30;24.83;;;10.30;81.80;;;;;;5082414;28;20032;-72
2021/11/16 06:29:41;;;;;;;64.68;21.90;;;10.30;81.80;;;;;;5079521;28;20024;-77
2021/11/16 06:32:08;;;;;;;66.03;24.55;;;10.30;81.80;;;;;;5078088;28;20036;-76
2021/11/16 06:34:34;;;;;;;65.43;23.42;;;10.30;81.70;;;;;;5077270;28;20028;-75
2021/11/16 06:37:01;;;;;;;64.07;24.17;;;10.40;81.60;;;;;;5074673;28;20039;-76
2021/11/16 06:39:26;;;;;;;58.88;22.23;;;10.30;81.50;;;;;;5077878;28;20028;-76
2021/11/16 06:41:55;;;;;;;68.05;23.13;;;10.30;81.60;;;;;;5077418;28;20039;-76
2021/11/16 06:44:21;;;;;;;60.05;20.67;;;10.30;81.80;;;;;;5077985;28;20035;-77
2021/11/16 06:46:48;;;;;;;66.05;22.73;;;10.30;82.20;;;;;;5078144;28;20399;-79
2021/11/16 06:49:16;;;;;;;69.03;22.83;;;10.30;82.40;;;;;;5072801;28;20123;-77
2021/11/16 06:51:43;;;;;;;62.88;21.58;;;10.20;82.40;;;;;;5073849;28;20037;-68
2021/11/16 06:54:10;;;;;;;75.53;24.23;;;10.30;82.50;;;;;;5076838;28;20024;-75
2021/11/16 06:56:37;;;;;;;65.30;23.35;;;10.30;82.40;;;;;;5076969;28;20122;-76
2021/11/16 06:59:04;;;;;;;74.70;24.55;;;10.30;82.40;;;;;;5082735;28;20460;-75
2021/11/16 07:01:30;;;;;;;69.60;23.65;;;10.30;82.30;;;;;;5080452;28;20025;-78
2021/11/16 07:04:01;;;;;;;67.53;24.20;;;10.30;82.20;;;;;;5078439;28;20036;-77
2021/11/16 07:06:30;;;;;;;68.88;24.10;;;10.40;82.40;;;;;;5076559;28;20056;-77
2021/11/16 07:08:56;;;;;;;76.72;25.25;;;10.30;82.20;;;;;;5076056;28;20070;-75
2021/11/16 07:11:24;;;;;;;75.00;23.23;;;10.30;82.20;;;;;;5079218;28;20079;-77
2021/11/16 07:14:06;;;;;;;74.70;24.85;;;10.40;82.20;;;;;;5077681;28;20020;-76
2021/11/16 07:16:36;;;;;;;66.22;23.73;;;10.40;82.10;;;;;;5086018;28;20075;-78
2021/11/16 07:19:04;;;;;;;69.82;23.60;;;10.40;82.20;;;;;;5077425;28;20078;-79
2021/11/16 07:21:49;;;;;;;62.75;21.42;;;10.40;82.20;;;;;;5082620;28;20098;-81
2021/11/16 07:24:24;;;;;;;69.05;23.63;;;10.40;82.30;;;;;;5085341;28;20024;-78
2021/11/16 07:27:04;;;;;;;59.45;22.25;;;10.40;82.30;;;;;;5075993;28;20028;-75
2021/11/16 07:29:49;;;;;;;58.88;23.23;;;10.40;82.30;;;;;;5068197;28;20115;-76
2021/11/16 07:32:22;;;;;;;66.90;22.80;;;10.40;82.30;;;;;;5078454;28;20039;-75
2021/11/16 07:34:50;;;;;;;69.30;24.35;;;10.40;82.30;;;;;;5078540;28;20044;-75
2021/11/16 07:37:37;;;;;;;74.53;23.88;;;10.40;82.30;;;;;;5072515;28;20056;-76
2021/11/16 07:40:11;;;;;;;59.53;21.27;;;10.40;82.40;;;;;;5060653;28;20024;-78
2021/11/16 07:42:48;;;;;;;69.18;23.15;;;10.40;82.50;;;;;;5073468;28;20035;-78
2021/11/16 07:45:14;;;;;;;70.32;23.23;;;10.40;82.60;;;;;;5072130;28;20392;-78
2021/11/16 07:48:06;;;;;;;70.22;23.98;;;10.40;82.60;;;;;;5074124;28;20072;-81
2021/11/16 07:50:31;;;;;;;58.97;20.90;;;10.40;82.70;;;;;;5071816;28;20036;-79
2021/11/16 07:53:09;;;;;;;68.03;24.50;;;10.40;82.50;;;;;;5074906;28;20482;-79
2021/11/16 07:55:36;;;;;;;68.05;23.00;;;10.40;82.50;;;;;;5077000;28;20035;-79
2021/11/16 07:58:05;;;;;;;68.97;23.30;;;10.40;82.40;;;;;;5079089;28;20036;-78
2021/11/16 08:00:34;;;;;;;70.22;23.73;;;10.40;82.50;;;;;;5070351;28;20032;-79
2021/11/16 08:03:11;;;;;;;72.95;24.77;;;10.40;82.40;;;;;;5072302;28;20108;-79
2021/11/16 08:05:49;;;;;;;74.75;26.63;;;10.40;82.50;;;;;;5069261;28;20020;-79
2021/11/16 08:11:32;;;;;;;71.25;24.90;;;10.40;82.60;;;;;;5078427;28;20024;-79
2021/11/16 08:14:05;;;;;;;80.07;24.77;;;10.40;82.70;;;;;;5074761;28;20028;-78
2021/11/16 08:16:32;;;;;;;67.13;22.58;;;10.30;82.60;;;;;;5072967;28;20059;-78
2021/11/16 08:19:09;;;;;;;69.30;23.77;;;10.30;82.70;;;;;;5071441;28;20117;-78
2021/11/16 08:21:42;;;;;;;62.25;21.30;;;10.30;82.70;;;;;;5071389;28;20063;-79
2021/11/16 08:24:13;;;;;;;72.38;22.88;;;10.30;82.80;;;;;;5072862;28;20118;-78
2021/11/16 08:26:50;;;;;;;76.57;25.70;;;10.30;83.00;;;;;;5070777;28;20153;-78
2021/11/16 08:29:28;;;;;;;64.82;21.15;;;10.30;83.00;;;;;;5072457;28;20041;-78
2021/11/16 08:32:07;;;;;;;63.92;22.05;;;10.30;83.00;;;;;;5072188;28;20564;-78
2021/11/16 08:34:36;;;;;;;71.85;23.52;;;10.20;83.10;;;;;;5078877;28;20491;-78
2021/11/16 08:37:06;;;;;;;66.32;23.00;;;10.20;83.20;;;;;;5087291;28;20052;-78
2021/11/16 08:39:38;;;;;;;61.33;23.00;;;10.20;83.10;;;;;;5079101;28;20029;-78
2021/11/16 08:42:27;;;;;;;59.60;21.05;;;10.20;83.00;;;;;;5086335;28;20020;-78
2021/11/16 08:44:59;;;;;;;61.83;22.90;;;10.30;83.00;;;;;;5068427;28;20033;-78
2021/11/16 08:47:42;;;;;;;69.15;23.50;;;10.20;82.90;;;;;;5085455;28;20494;-79
2021/11/16 08:50:28;;;;;;;63.03;22.13;;;10.20;83.00;;;;;;5069927;28;20040;-78
2021/11/16 08:52:55;;;;;;;63.35;21.15;;;10.20;82.90;;;;;;5087167;28;20036;-79
2021/11/16 08:55:26;;;;;;;60.85;21.10;;;10.20;83.00;;;;;;5082651;28;20077;-79
2021/11/16 08:57:52;;;;;;;56.10;20.63;;;10.30;83.10;;;;;;5086896;28;20053;-78
2021/11/16 09:00:20;;;;;;;59.03;19.83;;;10.30;83.00;;;;;;5083126;28;20463;-74
2021/11/16 09:02:47;;;;;;;50.38;18.35;;;10.20;83.20;;;;;;5088347;28;20036;-72
2021/11/16 09:05:17;;;;;;;49.72;15.77;;;10.30;83.60;;;;;;5084262;28;20032;-73
2021/11/16 09:07:54;;;;;;;53.38;20.40;;;10.30;83.60;;;;;;5085258;28;20028;-76
2021/11/16 09:10:21;;;;;;;58.58;19.67;;;10.20;83.30;;;;;;5072926;28;20033;-76
2021/11/16 09:12:49;;;;;;;61.00;20.20;;;10.30;83.20;;;;;;5080772;28;20024;-76
2021/11/16 09:15:34;;;;;;;52.30;19.60;;;10.30;83.20;;;;;;5080688;28;20040;-76
2021/11/16 09:18:29;;;;;;;66.20;20.83;;;10.30;83.10;;;;;;5078060;28;20135;-76
2021/11/16 09:21:08;;;;;;;60.42;20.48;;;10.30;83.20;;;;;;5070622;28;20028;-75
2021/11/16 09:24:07;;;;;;;66.55;22.35;;;10.30;83.30;;;;;;5070731;28;20032;-76
2021/11/16 09:26:40;;;;;;;55.05;18.10;;;10.30;83.80;;;;;;5059253;28;20029;-76
2021/11/16 09:29:17;;;;;;;58.60;19.77;;;10.20;83.90;;;;;;5070737;28;20048;-75
2021/11/16 09:31:56;;;;;;;53.17;18.38;;;10.30;83.40;;;;;;5083433;28;20032;-76
2021/11/16 09:34:24;;;;;;;60.33;21.35;;;10.30;83.30;;;;;;5080340;28;20067;-76
2021/11/16 09:37:03;;;;;;;61.00;22.00;;;10.30;83.30;;;;;;5080705;28;20036;-76
2021/11/16 09:39:30;;;;;;;59.33;20.10;;;10.30;83.40;;;;;;5077770;28;20038;-75
2021/11/16 09:42:01;;;;;;;53.22;19.13;;;10.30;83.40;;;;;;5076748;28;20553;-76
2021/11/16 09:44:33;;;;;;;56.13;18.48;;;10.30;83.40;;;;;;5077166;28;20492;-76
2021/11/16 09:47:08;;;;;;;60.53;22.17;;;10.30;83.40;;;;;;5081242;28;20050;-75
2021/11/16 09:49:38;;;;;;;62.08;20.73;;;10.30;83.30;;;;;;5080288;28;20034;-76
2021/11/16 09:52:12;;;;;;;61.97;19.95;;;10.30;83.30;;;;;;5085979;28;20048;-76
2021/11/16 09:55:19;;;;;;;60.97;19.02;;;10.30;83.30;;;;;;5090367;28;20491;-75
2021/11/16 09:58:02;;;;;;;67.03;21.27;;;10.30;83.30;;;;;;5068328;28;20051;-76
2021/11/16 10:00:33;;;;;;;63.03;21.38;;;10.30;83.30;;;;;;5081144;28;20122;-75
2021/11/16 10:03:13;;;;;;;61.70;21.80;;;10.30;83.40;;;;;;5081095;28;20134;-75
2021/11/16 10:05:48;;;;;;;65.45;20.00;;;10.30;83.40;;;;;;5080676;28;20036;-76
2021/11/16 10:08:16;;;;;;;58.42;21.25;;;10.30;83.50;;;;;;5074471;28;20037;-76
2021/11/16 10:10:47;;;;;;;63.67;21.45;;;10.20;83.40;;;;;;5073767;28;20028;-76
2021/11/16 10:13:16;;;;;;;63.97;21.95;;;10.30;83.50;;;;;;5075132;28;20036;-76
2021/11/16 10:15:48;;;;;;;57.25;18.60;;;10.30;83.60;;;;;;5075056;28;20056;-74
2021/11/16 10:18:15;;;;;;;30.95;11.18;;;10.30;83.80;;;;;;5086764;28;20048;-73
2021/11/16 10:20:43;;;;;;;47.83;17.80;;;10.30;84.10;;;;;;5073168;28;20090;-77
2021/11/16 10:23:12;;;;;;;49.63;16.15;;;10.20;84.40;;;;;;5075974;28;20041;-77
2021/11/16 10:25:48;;;;;;;52.20;15.15;;;10.20;84.60;;;;;;5075341;28;20051;-73
2021/11/16 10:28:15;;;;;;;53.00;18.00;;;10.20;85.20;;;;;;5070523;28;20112;-73
2021/11/16 10:30:43;;;;;;;47.08;14.27;;;10.10;85.20;;;;;;5071157;28;20039;-73
2021/11/16 10:33:32;;;;;;;53.53;16.63;;;10.10;85.30;;;;;;5070602;28;20040;-74
2021/11/16 10:36:09;;;;;;;59.30;17.85;;;10.10;85.50;;;;;;5070961;28;20076;-76
2021/11/16 10:38:41;;;;;;;53.33;17.27;;;10.10;85.60;;;;;;5083058;28;20083;-76
2021/11/16 10:41:14;;;;;;;56.17;18.35;;;10.00;85.80;;;;;;5074288;28;20035;-76
2021/11/16 10:43:49;;;;;;;63.78;20.20;;;10.00;85.90;;;;;;5075557;28;20037;-76
2021/11/16 10:46:20;;;;;;;56.75;20.17;;;9.90;85.70;;;;;;5072042;28;20568;-80
2021/11/16 10:48:51;;;;;;;68.32;20.50;;;10.00;85.70;;;;;;5074447;28;20380;-75
2021/11/16 10:51:17;;;;;;;66.35;20.13;;;10.00;85.50;;;;;;5071519;28;20037;-74
2021/11/16 10:53:51;;;;;;;60.72;21.27;;;10.00;85.30;;;;;;5071974;28;20542;-75
2021/11/16 10:56:18;;;;;;;68.00;21.75;;;10.00;85.20;;;;;;5076339;28;20029;-75
2021/11/16 10:58:46;;;;;;;60.15;19.10;;;10.10;85.10;;;;;;5074052;28;20052;-74
2021/11/16 11:01:17;;;;;;;59.15;19.65;;;10.10;85.00;;;;;;5068443;28;20111;-74
2021/11/16 11:03:55;;;;;;;44.75;13.43;;;10.20;85.00;;;;;;5067071;28;20031;-75
2021/11/16 11:06:23;;;;;;;49.50;16.02;;;10.20;85.10;;;;;;5065591;28;20087;-72
2021/11/16 11:08:53;;;;;;;52.67;18.08;;;10.20;85.10;;;;;;5062782;28;20029;-74
2021/11/16 11:11:23;;;;;;;48.75;16.60;;;10.20;85.40;;;;;;5060987;28;20082;-75
2021/11/16 11:14:18;;;;;;;46.05;14.25;;;10.10;85.50;;;;;;5062216;28;20028;-74
2021/11/16 11:16:56;;;;;;;52.40;15.13;;;10.10;85.90;;;;;;5066738;28;20518;-74
2021/11/16 11:19:36;;;;;;;27.77;9.23;;;10.00;86.30;;;;;;5063501;28;20036;-74
2021/11/16 11:22:15;;;;;;;55.38;16.23;;;10.00;86.60;;;;;;5065605;28;20495;-75
2021/11/16 11:24:43;;;;;;;47.08;12.82;;;9.90;86.90;;;;;;5086745;28;20395;-74
2021/11/16 11:32:47;;;;;;;52.53;17.75;;;9.80;87.20;;;;;;5084831;28;20032;-73
2021/11/16 11:35:16;;;;;;;50.38;16.27;;;9.80;87.20;;;;;;5080410;28;20490;-74
2021/11/16 11:37:45;;;;;;;58.67;17.80;;;9.80;87.00;;;;;;5066479;28;20099;-74
2021/11/16 11:40:22;;;;;;;59.45;16.92;;;9.80;87.00;;;;;;5086478;28;20032;-75
2021/11/16 11:42:52;;;;;;;58.80;18.83;;;9.90;86.90;;;;;;5071020;28;20024;-72
2021/11/16 11:45:34;;;;;;;55.38;17.63;;;9.80;86.80;;;;;;5065856;28;20075;-73
2021/11/16 11:48:05;;;;;;;60.75;18.80;;;9.90;86.80;;;;;;5070495;28;20032;-74
2021/11/16 11:50:35;;;;;;;57.50;18.05;;;9.90;86.80;;;;;;5071827;28;20020;-81
2021/11/16 11:53:10;;;;;;;55.58;18.63;;;9.90;86.80;;;;;;5069250;28;20484;-80
2021/11/16 11:55:43;;;;;;;46.67;16.30;;;9.90;86.70;;;;;;5061527;28;20107;-77
2021/11/16 11:58:11;;;;;;;55.60;18.17;;;9.90;86.80;;;;;;5081427;28;20512;-79
2021/11/16 12:00:39;;;;;;;56.08;18.80;;;10.00;86.60;;;;;;5073768;28;20383;-77
2021/11/16 12:03:06;;;;;;;51.67;18.13;;;10.00;87.10;;;;;;5083637;28;20028;-79
2021/11/16 12:05:34;;;;;;;53.13;18.13;;;10.00;86.30;;;;;;5078727;28;20040;-79
2021/11/16 12:08:02;;;;;;;46.47;16.20;;;10.00;86.10;;;;;;5079681;28;20028;-77
2021/11/16 12:10:28;;;;;;;46.72;16.52;;;10.10;86.10;;;;;;5074561;28;20043;-76
2021/11/16 12:12:56;;;;;;;23.05;8.57;;;10.10;86.10;;;;;;5085169;28;20028;-77
2021/11/16 12:15:30;;;;;;;42.20;14.23;;;10.10;86.10;;;;;;5072093;28;20471;-72
2021/11/16 12:17:58;;;;;;;39.97;12.60;;;10.10;86.20;;;;;;5065790;28;20099;-72
2021/11/16 12:20:35;;;;;;;35.05;12.73;;;10.10;86.30;;;;;;5064774;28;20037;-72
2021/11/16 12:23:01;;;;;;;33.65;12.70;;;10.10;86.40;;;;;;5074881;28;20036;-72
2021/11/16 12:25:27;;;;;;;39.38;11.52;;;10.00;86.50;;;;;;5089243;28;20028;-72
2021/11/16 12:27:52;;;;;;;31.90;12.07;;;10.00;86.70;;;;;;5073888;28;20070;-71
2021/11/16 12:30:35;;;;;;;44.53;13.00;;;10.00;86.70;;;;;;5079628;28;20031;-72
2021/11/16 12:33:01;;;;;;;42.75;13.77;;;10.00;86.70;;;;;;5082662;28;20040;-74
2021/11/16 12:35:26;;;;;;;34.63;12.77;;;10.00;86.80;;;;;;5081517;28;20035;-73
2021/11/16 12:37:55;;;;;;;30.30;10.38;;;10.00;86.70;;;;;;5083004;28;20040;-73
2021/11/16 12:40:25;;;;;;;37.38;13.20;;;10.00;86.70;;;;;;5085690;28;20162;-72
2021/11/16 12:43:06;;;;;;;32.15;9.10;;;10.00;86.60;;;;;;5086535;28;20066;-72
2021/11/16 12:45:38;;;;;;;34.08;11.15;;;10.00;86.60;;;;;;5086536;28;20145;-73
2021/11/16 12:48:05;;;;;;;32.15;11.88;;;10.00;86.50;;;;;;5084064;28;20085;-73
2021/11/16 12:50:31;;;;;;;30.80;9.93;;;10.00;87.20;;;;;;5071599;28;20044;-72
2021/11/16 12:52:57;;;;;;;39.33;12.88;;;10.00;86.70;;;;;;5081149;28;20028;-72
2021/11/16 12:55:29;;;;;;;34.70;10.70;;;10.00;86.50;;;;;;5078301;28;20024;-72
2021/11/16 12:58:23;;;;;;;36.22;12.75;;;10.00;86.40;;;;;;5084071;28;20039;-72
2021/11/16 13:00:52;;;;;;;25.58;10.02;;;10.00;86.20;;;;;;5073065;28;20309;-73
2021/11/16 13:03:37;;;;;;;35.58;12.73;;;10.00;86.10;;;;;;5076655;28;20161;-72